Time;durP1;ratioP1;P1;durP2;ratioP2;P2;SDS_P1;SDS_P2;PMS_P1;PMS_P2;Temp;Humidity;BMP_temperature;BMP_pressure;BME280_temperature;BME280_humidity;BME280_pressure;Samples;Min_cycle;Max_cycle;Signal;HPM_P1;HPM_P2
2023/08/31 00:00:37;;;;;;;0.40;0.40;;;11.10;99.90;;;;;;5095891;28;20478;-81
2023/08/31 00:03:03;;;;;;;0.40;0.40;;;11.10;99.90;;;;;;5095703;28;20048;-81
2023/08/31 00:05:30;;;;;;;0.40;0.40;;;11.00;99.90;;;;;;5094606;28;20048;-81
2023/08/31 00:07:56;;;;;;;0.40;0.40;;;11.30;99.90;;;;;;5094909;28;20480;-81
2023/08/31 00:10:21;;;;;;;0.40;0.40;;;11.00;99.90;;;;;;5096049;28;20051;-81
2023/08/31 00:12:49;;;;;;;0.50;0.50;;;11.00;99.90;;;;;;5095455;28;20036;-81
2023/08/31 00:15:14;;;;;;;0.40;0.40;;;10.90;99.90;;;;;;5095446;28;20036;-81
2023/08/31 00:17:40;;;;;;;0.40;0.40;;;10.90;99.90;;;;;;5095463;28;20043;-81
2023/08/31 00:20:11;;;;;;;0.40;0.40;;;10.90;99.90;;;;;;5095392;28;20434;-81
2023/08/31 00:22:37;;;;;;;0.50;0.50;;;10.90;99.90;;;;;;5095849;28;20044;-81
2023/08/31 00:25:05;;;;;;;0.70;0.70;;;11.10;99.90;;;;;;5095315;28;20085;-81
2023/08/31 00:27:31;;;;;;;0.40;0.40;;;10.80;99.90;;;;;;5095189;28;20324;-81
2023/08/31 00:29:57;;;;;;;0.50;0.50;;;10.80;99.90;;;;;;5095278;28;20036;-81
2023/08/31 00:32:23;;;;;;;0.40;0.40;;;10.80;99.90;;;;;;5095112;28;20123;-81
2023/08/31 00:34:50;;;;;;;0.40;0.40;;;10.80;99.90;;;;;;5076817;28;20114;-81
2023/08/31 00:37:16;;;;;;;0.50;0.50;;;10.80;99.90;;;;;;5095118;28;20106;-81
2023/08/31 00:39:41;;;;;;;0.43;0.43;;;10.80;99.90;;;;;;5095463;28;20456;-80
2023/08/31 00:42:07;;;;;;;0.50;0.50;;;10.70;99.90;;;;;;5095067;28;20119;-81
2023/08/31 00:44:33;;;;;;;0.40;0.40;;;10.70;99.90;;;;;;5095463;28;20142;-81
2023/08/31 00:46:59;;;;;;;0.40;0.40;;;10.70;99.90;;;;;;5095565;28;20368;-81
2023/08/31 00:49:25;;;;;;;0.50;0.50;;;10.70;99.90;;;;;;5095104;28;20086;-80
2023/08/31 00:51:51;;;;;;;0.43;0.43;;;10.70;99.90;;;;;;5095215;28;20559;-82
2023/08/31 00:54:22;;;;;;;0.40;0.40;;;10.60;99.90;;;;;;5095126;28;20040;-81
2023/08/31 00:56:55;;;;;;;0.40;0.40;;;10.60;99.90;;;;;;5094683;28;20115;-81
2023/08/31 00:59:20;;;;;;;0.50;0.50;;;10.80;99.90;;;;;;5094610;28;20406;-81
2023/08/31 01:02:03;;;;;;;0.50;0.50;;;10.70;99.90;;;;;;5094490;28;20047;-81
2023/08/31 01:04:51;;;;;;;1.02;1.02;;;10.70;99.90;;;;;;5094578;28;20460;-81
2023/08/31 01:07:46;;;;;;;0.43;0.43;;;10.70;99.90;;;;;;5094733;28;20044;-81
2023/08/31 01:10:25;;;;;;;0.50;0.50;;;10.70;99.90;;;;;;5094367;28;20476;-81
2023/08/31 01:13:00;;;;;;;0.40;0.40;;;10.70;99.90;;;;;;5093368;28;20070;-81
2023/08/31 01:15:29;;;;;;;0.50;0.50;;;10.70;99.90;;;;;;5094164;28;20046;-81
2023/08/31 01:17:56;;;;;;;0.40;0.40;;;10.70;99.90;;;;;;5094012;28;20059;-81
2023/08/31 01:20:32;;;;;;;0.40;0.40;;;10.70;99.90;;;;;;5094002;28;20043;-81
2023/08/31 01:23:05;;;;;;;0.82;0.82;;;10.70;99.90;;;;;;5093037;28;20044;-81
2023/08/31 01:25:32;;;;;;;0.47;0.47;;;10.70;99.90;;;;;;5094197;28;20059;-81
2023/08/31 01:27:59;;;;;;;0.40;0.40;;;10.70;99.90;;;;;;5094148;28;20036;-80
2023/08/31 01:30:29;;;;;;;0.40;0.40;;;10.70;99.90;;;;;;5094063;28;20044;-81
2023/08/31 01:32:55;;;;;;;0.50;0.50;;;10.70;99.90;;;;;;5093899;28;20032;-80
2023/08/31 01:35:21;;;;;;;0.47;0.47;;;10.70;99.90;;;;;;5094157;28;20047;-81
2023/08/31 01:37:58;;;;;;;0.60;0.60;;;10.70;99.90;;;;;;5093972;28;20054;-81
2023/08/31 01:41:07;;;;;;;0.50;0.50;;;10.70;99.90;;;;;;5093991;28;20089;-81
2023/08/31 01:43:35;;;;;;;0.40;0.40;;;10.70;99.90;;;;;;5093929;28;20048;-81
2023/08/31 01:46:01;;;;;;;0.40;0.40;;;10.70;99.90;;;;;;5093865;28;20127;-81
2023/08/31 01:48:27;;;;;;;0.50;0.50;;;10.70;99.90;;;;;;5094321;28;20559;-80
2023/08/31 01:50:53;;;;;;;0.40;0.40;;;10.70;99.90;;;;;;5094124;28;20042;-81
2023/08/31 01:53:18;;;;;;;0.43;0.43;;;10.70;99.90;;;;;;5093858;28;20036;-81
2023/08/31 01:55:44;;;;;;;0.50;0.50;;;10.70;99.90;;;;;;5093867;28;20497;-81
2023/08/31 01:58:09;;;;;;;0.40;0.40;;;11.40;99.90;;;;;;5093784;28;20040;-81
2023/08/31 02:00:38;;;;;;;0.50;0.50;;;10.70;99.90;;;;;;5093711;28;20098;-81
2023/08/31 02:03:04;;;;;;;0.50;0.50;;;10.70;99.90;;;;;;5094467;28;20048;-81
2023/08/31 02:05:30;;;;;;;0.50;0.50;;;10.70;99.90;;;;;;5092897;28;20464;-81
2023/08/31 02:07:55;;;;;;;0.50;0.50;;;10.70;99.90;;;;;;5093444;28;20052;-81
2023/08/31 02:10:21;;;;;;;0.40;0.40;;;10.80;99.90;;;;;;5093749;28;20051;-81
2023/08/31 02:12:47;;;;;;;0.50;0.50;;;10.80;99.90;;;;;;5093661;28;20216;-81
2023/08/31 02:15:12;;;;;;;0.60;0.60;;;10.80;99.90;;;;;;5093566;28;20170;-81
2023/08/31 02:17:38;;;;;;;0.50;0.50;;;10.80;99.90;;;;;;5094034;28;20040;-81
2023/08/31 02:20:06;;;;;;;0.40;0.40;;;10.80;99.90;;;;;;5094262;28;20464;-81
2023/08/31 02:22:34;;;;;;;0.50;0.50;;;10.70;99.90;;;;;;5093567;28;20044;-81
2023/08/31 02:25:00;;;;;;;0.60;0.50;;;10.70;99.90;;;;;;5093531;28;20059;-81
2023/08/31 02:27:26;;;;;;;;;;;10.80;99.90;;;;;;5093308;28;20051;-81
2023/08/31 02:29:52;;;;;;;0.47;0.47;;;10.70;99.90;;;;;;5097445;28;19981;-81
2023/08/31 02:32:17;;;;;;;0.55;0.55;;;10.70;99.90;;;;;;5097891;28;20039;-81
2023/08/31 02:34:43;;;;;;;0.65;0.65;;;10.70;99.90;;;;;;5097848;28;20044;-81
2023/08/31 02:37:09;;;;;;;0.73;0.60;;;10.80;99.90;;;;;;5097649;28;20042;-81
2023/08/31 02:39:34;;;;;;;0.70;0.70;;;10.80;99.90;;;;;;5097389;28;20082;-81
2023/08/31 02:42:00;;;;;;;0.40;0.40;;;11.00;99.90;;;;;;5097328;28;20127;-81
2023/08/31 02:44:25;;;;;;;0.60;0.60;;;10.80;99.90;;;;;;5097246;28;20472;-81
2023/08/31 02:46:51;;;;;;;0.43;0.43;;;10.90;99.90;;;;;;5097123;28;20050;-81
2023/08/31 02:49:16;;;;;;;0.60;0.60;;;10.90;99.90;;;;;;5097677;28;20036;-81
2023/08/31 02:51:42;;;;;;;0.43;0.43;;;10.90;99.90;;;;;;5096982;28;20043;-81
2023/08/31 02:54:08;;;;;;;1.27;0.70;;;10.90;99.90;;;;;;5096712;28;20468;-81
2023/08/31 02:56:33;;;;;;;0.50;0.50;;;10.90;99.90;;;;;;5097172;28;20036;-81
2023/08/31 02:58:59;;;;;;;0.60;0.60;;;11.20;99.90;;;;;;5096955;28;20089;-81
2023/08/31 03:01:25;;;;;;;0.50;0.50;;;10.90;99.90;;;;;;5096535;28;20036;-80
2023/08/31 03:03:50;;;;;;;0.40;0.40;;;10.80;99.90;;;;;;5096859;28;20040;-80
2023/08/31 03:06:17;;;;;;;0.50;0.50;;;10.80;99.90;;;;;;5096824;28;20047;-81
2023/08/31 03:08:43;;;;;;;0.43;0.43;;;10.80;99.90;;;;;;5096872;28;20425;-81
2023/08/31 03:11:08;;;;;;;0.40;0.40;;;10.70;99.90;;;;;;5096647;28;20381;-81
2023/08/31 03:13:34;;;;;;;0.50;0.50;;;10.80;99.90;;;;;;5096680;28;20058;-81
2023/08/31 03:16:00;;;;;;;0.43;0.43;;;10.70;99.90;;;;;;5096572;28;20122;-81
2023/08/31 03:18:26;;;;;;;0.50;0.50;;;10.70;99.90;;;;;;5096998;28;20106;-81
2023/08/31 03:20:51;;;;;;;0.50;0.50;;;10.60;99.90;;;;;;5096775;28;20075;-81
2023/08/31 03:23:17;;;;;;;0.50;0.50;;;10.60;99.90;;;;;;5095317;28;20082;-80
2023/08/31 03:25:43;;;;;;;0.47;0.47;;;10.60;99.90;;;;;;5095806;28;20418;-80
2023/08/31 03:28:09;;;;;;;0.50;0.50;;;10.50;99.90;;;;;;5095640;28;20035;-80
2023/08/31 03:30:35;;;;;;;0.57;0.50;;;10.50;99.90;;;;;;5096277;28;20093;-80
2023/08/31 03:33:02;;;;;;;0.55;0.55;;;10.50;99.90;;;;;;5096155;28;20376;-82
2023/08/31 03:35:28;;;;;;;0.60;0.60;;;10.50;99.90;;;;;;5096569;28;20040;-80
2023/08/31 03:37:54;;;;;;;0.50;0.50;;;10.40;99.90;;;;;;5095862;28;20502;-80
2023/08/31 03:40:21;;;;;;;0.60;0.60;;;10.40;99.90;;;;;;5096211;28;20123;-80
2023/08/31 03:42:47;;;;;;;0.55;0.55;;;10.40;99.90;;;;;;5096130;28;20536;-80
2023/08/31 03:45:12;;;;;;;0.50;0.50;;;10.30;99.90;;;;;;5096107;28;20078;-80
2023/08/31 03:47:38;;;;;;;0.50;0.50;;;10.30;99.90;;;;;;5095987;28;20463;-80
2023/08/31 03:50:06;;;;;;;0.60;0.60;;;10.30;99.90;;;;;;5096304;28;20036;-80
2023/08/31 03:52:31;;;;;;;0.90;0.70;;;10.40;99.90;;;;;;5095852;28;20380;-80
2023/08/31 03:54:57;;;;;;;0.50;0.50;;;10.40;99.90;;;;;;5095911;28;20044;-80
2023/08/31 03:57:23;;;;;;;0.65;0.65;;;10.40;99.90;;;;;;5095915;28;20035;-80
2023/08/31 03:59:49;;;;;;;0.50;0.50;;;10.80;99.90;;;;;;5095821;28;20039;-80
2023/08/31 04:02:14;;;;;;;0.70;0.70;;;10.60;99.90;;;;;;5095419;28;20089;-80
2023/08/31 04:04:40;;;;;;;0.60;0.60;;;10.80;99.90;;;;;;5095756;28;20044;-80
2023/08/31 04:07:06;;;;;;;0.60;0.60;;;10.60;99.90;;;;;;5095686;28;20486;-81
2023/08/31 04:09:32;;;;;;;0.70;0.68;;;10.60;99.90;;;;;;5096086;28;20093;-81
2023/08/31 04:11:58;;;;;;;0.55;0.55;;;10.60;99.90;;;;;;5095495;28;20042;-80
2023/08/31 04:14:26;;;;;;;0.50;0.50;;;11.00;99.90;;;;;;5095422;28;20044;-80
2023/08/31 04:16:51;;;;;;;0.50;0.50;;;10.60;99.90;;;;;;5095467;28;20422;-81
2023/08/31 04:19:17;;;;;;;0.50;0.50;;;10.60;99.90;;;;;;5095428;28;20036;-80
2023/08/31 04:21:43;;;;;;;0.45;0.45;;;10.60;99.90;;;;;;5095923;28;20036;-82
2023/08/31 04:24:10;;;;;;;0.50;0.50;;;10.60;99.90;;;;;;5095305;28;20044;-82
2023/08/31 04:26:35;;;;;;;0.40;0.40;;;10.60;99.90;;;;;;5095247;28;20079;-82
2023/08/31 04:29:03;;;;;;;0.65;0.50;;;11.00;99.90;;;;;;5095222;28;20603;-81
2023/08/31 04:31:28;;;;;;;0.50;0.50;;;10.90;99.90;;;;;;5095096;28;20040;-82
2023/08/31 04:33:54;;;;;;;0.52;0.52;;;10.60;99.90;;;;;;5095523;28;20032;-81
2023/08/31 04:36:21;;;;;;;0.50;0.50;;;10.60;99.90;;;;;;5095014;28;20376;-81
2023/08/31 04:38:48;;;;;;;0.50;0.50;;;10.70;99.90;;;;;;5094033;28;20051;-82
2023/08/31 04:41:15;;;;;;;0.60;0.60;;;10.60;99.90;;;;;;5094935;28;20055;-81
2023/08/31 04:43:40;;;;;;;0.50;0.50;;;10.60;99.90;;;;;;5094847;28;20081;-81
2023/08/31 04:46:06;;;;;;;0.60;0.60;;;10.60;99.90;;;;;;5094800;28;20460;-82
2023/08/31 04:48:32;;;;;;;0.60;0.60;;;10.60;99.90;;;;;;5094887;28;20083;-81
2023/08/31 04:50:58;;;;;;;2.30;2.10;;;10.60;99.90;;;;;;5094219;28;20043;-81
2023/08/31 04:53:24;;;;;;;0.50;0.50;;;10.60;99.90;;;;;;5094560;28;20134;-81
2023/08/31 04:55:50;;;;;;;0.57;0.57;;;10.50;99.90;;;;;;5094708;28;20047;-81
2023/08/31 04:58:16;;;;;;;0.50;0.50;;;10.60;99.90;;;;;;5094581;28;20040;-81
2023/08/31 05:00:41;;;;;;;0.50;0.50;;;10.60;99.90;;;;;;5094635;28;20460;-81
2023/08/31 05:03:07;;;;;;;0.50;0.50;;;10.60;99.90;;;;;;5094893;28;20038;-82
2023/08/31 05:05:33;;;;;;;0.60;0.60;;;10.60;99.90;;;;;;5094565;28;20090;-82
2023/08/31 05:07:59;;;;;;;0.60;0.60;;;10.60;99.90;;;;;;5095054;28;20124;-82
2023/08/31 05:10:24;;;;;;;0.40;0.40;;;10.70;99.90;;;;;;5094167;28;20468;-81
2023/08/31 05:12:50;;;;;;;0.45;0.45;;;10.70;99.90;;;;;;5094281;28;20035;-82
2023/08/31 05:15:16;;;;;;;0.50;0.50;;;10.70;99.90;;;;;;5092837;28;20047;-81
2023/08/31 05:17:42;;;;;;;0.60;0.60;;;10.70;99.90;;;;;;5094270;28;20085;-82
2023/08/31 05:20:09;;;;;;;0.52;0.52;;;10.70;99.90;;;;;;5094582;28;20036;-81
2023/08/31 05:22:35;;;;;;;0.50;0.50;;;10.70;99.90;;;;;;5094280;28;20044;-81
2023/08/31 05:25:01;;;;;;;0.40;0.40;;;10.70;99.90;;;;;;5094464;28;20128;-81
2023/08/31 05:27:27;;;;;;;0.50;0.50;;;10.70;99.90;;;;;;5094208;28;20040;-81
2023/08/31 05:29:52;;;;;;;0.50;0.50;;;10.80;99.90;;;;;;5093842;28;20051;-81
2023/08/31 05:32:18;;;;;;;0.50;0.50;;;11.50;99.90;;;;;;5093799;28;20078;-82
2023/08/31 05:34:44;;;;;;;0.50;0.50;;;10.80;99.90;;;;;;5094134;28;20048;-81
2023/08/31 05:37:09;;;;;;;0.47;0.47;;;10.80;99.90;;;;;;5094017;28;20036;-82
2023/08/31 05:39:35;;;;;;;0.50;0.50;;;10.90;99.90;;;;;;5094564;28;20148;-82
2023/08/31 05:42:01;;;;;;;0.50;0.50;;;10.90;99.90;;;;;;5094029;28;20044;-81
2023/08/31 05:44:26;;;;;;;0.60;0.60;;;10.90;99.90;;;;;;5093878;28;20071;-81
2023/08/31 05:46:52;;;;;;;0.50;0.50;;;10.90;99.90;;;;;;5093906;28;20088;-82
2023/08/31 05:49:18;;;;;;;0.52;0.52;;;11.00;99.90;;;;;;5093961;28;20081;-81
2023/08/31 05:51:43;;;;;;;0.60;0.60;;;11.00;99.90;;;;;;5092531;28;20043;-82
2023/08/31 05:54:11;;;;;;;0.50;0.50;;;11.10;99.90;;;;;;5093860;28;20122;-81
2023/08/31 05:56:39;;;;;;;0.40;0.40;;;11.80;99.90;;;;;;5093746;28;20464;-82
2023/08/31 05:59:08;;;;;;;0.40;0.40;;;11.30;99.90;;;;;;5093753;28;20051;-81
2023/08/31 06:01:36;;;;;;;0.50;0.50;;;11.30;99.90;;;;;;5093682;28;20472;-82
2023/08/31 06:04:03;;;;;;;0.50;0.50;;;11.40;99.90;;;;;;5097046;28;20040;-81
2023/08/31 06:06:29;;;;;;;0.40;0.40;;;11.40;99.90;;;;;;5097998;28;20563;-81
2023/08/31 06:08:54;;;;;;;0.50;0.50;;;11.50;99.90;;;;;;5098137;28;20168;-81
2023/08/31 06:11:21;;;;;;;0.50;0.50;;;11.50;99.90;;;;;;5097466;28;20044;-82
2023/08/31 06:13:46;;;;;;;0.50;0.50;;;11.50;99.90;;;;;;5097783;28;20074;-81
2023/08/31 06:16:12;;;;;;;0.50;0.50;;;11.50;99.90;;;;;;5097506;28;20036;-81
2023/08/31 06:18:38;;;;;;;0.40;0.40;;;11.50;99.90;;;;;;5098081;28;20036;-82
2023/08/31 06:21:03;;;;;;;0.40;0.40;;;11.60;99.90;;;;;;5097365;28;20044;-81
2023/08/31 06:23:29;;;;;;;0.50;0.50;;;11.60;99.90;;;;;;5097771;28;20044;-82
2023/08/31 06:25:55;;;;;;;0.50;0.50;;;11.70;99.90;;;;;;5097581;28;20047;-82
2023/08/31 06:28:20;;;;;;;0.50;0.50;;;11.70;99.90;;;;;;5097221;28;20032;-81
2023/08/31 06:30:47;;;;;;;0.40;0.40;;;11.80;99.90;;;;;;5097494;28;20395;-81
2023/08/31 06:33:14;;;;;;;0.70;0.70;;;11.90;99.90;;;;;;5097773;28;20039;-81
2023/08/31 06:35:39;;;;;;;;;;;12.00;99.90;;;;;;5098449;28;20388;-82
2023/08/31 06:38:05;;;;;;;0.65;0.60;;;12.60;99.90;;;;;;5096968;28;19919;-81
2023/08/31 06:40:31;;;;;;;0.50;0.50;;;12.20;99.90;;;;;;5096119;28;20066;-82
2023/08/31 06:42:57;;;;;;;0.47;0.47;;;12.30;99.90;;;;;;5096970;28;20101;-81
2023/08/31 06:45:22;;;;;;;0.50;0.50;;;12.30;99.90;;;;;;5097868;28;20051;-82
2023/08/31 06:47:48;;;;;;;0.45;0.45;;;12.50;99.90;;;;;;5097193;28;20505;-81
2023/08/31 06:50:13;;;;;;;0.75;0.55;;;12.60;99.90;;;;;;5097020;28;20036;-81
2023/08/31 06:52:41;;;;;;;0.50;0.50;;;12.70;99.90;;;;;;5097046;28;20491;-81
2023/08/31 06:55:07;;;;;;;0.40;0.40;;;12.80;99.90;;;;;;5097039;28;20055;-81
2023/08/31 06:57:32;;;;;;;0.47;0.47;;;13.00;99.90;;;;;;5096983;28;20076;-81
2023/08/31 06:59:58;;;;;;;0.52;0.40;;;13.10;99.90;;;;;;5096684;28;20036;-81
2023/08/31 07:02:26;;;;;;;0.50;0.50;;;13.10;99.90;;;;;;5096837;28;20047;-81
2023/08/31 07:04:52;;;;;;;0.40;0.40;;;13.10;99.90;;;;;;5097035;28;20054;-81
2023/08/31 07:07:18;;;;;;;0.50;0.50;;;13.20;99.90;;;;;;5078772;28;20052;-81
2023/08/31 07:09:46;;;;;;;0.40;0.40;;;13.30;99.90;;;;;;5096922;28;20044;-82
2023/08/31 07:12:11;;;;;;;0.50;0.47;;;13.60;99.90;;;;;;5095003;28;20491;-82
2023/08/31 07:14:38;;;;;;;0.40;0.40;;;13.50;99.90;;;;;;5096274;28;20040;-80
2023/08/31 07:17:04;;;;;;;0.60;0.60;;;13.60;99.90;;;;;;5096626;28;20365;-81
2023/08/31 07:19:29;;;;;;;0.40;0.40;;;13.50;99.90;;;;;;5096498;28;20093;-81
2023/08/31 07:21:55;;;;;;;0.60;0.60;;;13.50;99.90;;;;;;5096576;28;20075;-81
2023/08/31 07:24:22;;;;;;;0.30;0.30;;;13.60;99.90;;;;;;5095212;28;20122;-81
2023/08/31 07:26:48;;;;;;;0.50;0.50;;;13.60;99.90;;;;;;5096412;28;20051;-82
2023/08/31 07:29:14;;;;;;;0.38;0.38;;;13.60;99.90;;;;;;5096765;28;20048;-81
2023/08/31 07:31:40;;;;;;;0.40;0.40;;;13.60;99.90;;;;;;5096210;28;20037;-81
2023/08/31 07:34:05;;;;;;;0.33;0.33;;;13.70;99.90;;;;;;5096407;28;20065;-82
2023/08/31 07:36:31;;;;;;;0.40;0.40;;;13.70;99.90;;;;;;5095977;28;20032;-82
2023/08/31 07:38:57;;;;;;;0.65;0.65;;;13.60;99.90;;;;;;5096335;28;20074;-82
2023/08/31 07:41:23;;;;;;;0.50;0.50;;;13.60;99.90;;;;;;5096198;28;20387;-82
2023/08/31 07:43:51;;;;;;;0.32;0.32;;;13.70;99.90;;;;;;5095594;28;20040;-81
2023/08/31 07:46:18;;;;;;;0.40;0.40;;;13.80;99.90;;;;;;5094826;28;20040;-82
2023/08/31 07:48:43;;;;;;;0.50;0.50;;;13.90;99.90;;;;;;5095849;28;20498;-81
2023/08/31 07:51:09;;;;;;;0.45;0.45;;;14.00;99.90;;;;;;5096056;28;20036;-81
2023/08/31 07:53:34;;;;;;;0.30;0.30;;;14.10;99.90;;;;;;5096083;28;20468;-80
2023/08/31 07:56:00;;;;;;;0.40;0.40;;;14.30;99.90;;;;;;5095779;28;20119;-80
2023/08/31 07:58:26;;;;;;;0.40;0.40;;;14.40;99.90;;;;;;5095786;28;20375;-81
2023/08/31 08:00:58;;;;;;;0.47;0.47;;;14.60;99.90;;;;;;5095793;28;20040;-81
2023/08/31 08:03:23;;;;;;;0.40;0.40;;;14.70;99.90;;;;;;5095686;28;20517;-81
2023/08/31 08:05:49;;;;;;;0.40;0.40;;;14.80;99.90;;;;;;5095727;28;20035;-81
2023/08/31 08:08:15;;;;;;;0.40;0.40;;;14.90;99.90;;;;;;5095591;28;20052;-81
2023/08/31 08:10:42;;;;;;;0.30;0.30;;;15.00;99.90;;;;;;5095469;28;20082;-81
2023/08/31 08:13:09;;;;;;;0.40;0.40;;;15.30;99.90;;;;;;5094249;28;20036;-81
2023/08/31 08:15:35;;;;;;;0.40;0.40;;;15.20;99.90;;;;;;5094261;28;20105;-81
2023/08/31 08:18:00;;;;;;;0.30;0.30;;;15.30;99.90;;;;;;5095464;28;20480;-80
2023/08/31 08:20:27;;;;;;;0.60;0.60;;;15.60;99.90;;;;;;5095524;28;20494;-82
2023/08/31 08:22:53;;;;;;;0.30;0.30;;;15.40;99.90;;;;;;5095295;28;20114;-81
2023/08/31 08:25:19;;;;;;;0.50;0.50;;;15.50;99.90;;;;;;5094395;28;20078;-81
2023/08/31 08:27:45;;;;;;;0.30;0.30;;;15.40;99.90;;;;;;5095283;28;20097;-81
2023/08/31 08:30:11;;;;;;;0.37;0.37;;;15.40;99.90;;;;;;5095134;28;20040;-81
2023/08/31 08:32:37;;;;;;;0.30;0.30;;;15.30;99.90;;;;;;5094763;28;20754;-81
2023/08/31 08:35:03;;;;;;;0.30;0.30;;;15.30;99.90;;;;;;5095045;28;20047;-81
2023/08/31 08:37:29;;;;;;;0.30;0.30;;;15.40;99.90;;;;;;5095089;28;20043;-81
2023/08/31 08:39:55;;;;;;;0.30;0.30;;;15.50;99.90;;;;;;5094920;28;20040;-82
2023/08/31 08:42:24;;;;;;;0.30;0.30;;;15.70;99.90;;;;;;5094931;28;20086;-81
2023/08/31 08:44:50;;;;;;;0.30;0.30;;;15.70;99.90;;;;;;5093757;28;20040;-81
2023/08/31 08:47:17;;;;;;;0.30;0.30;;;15.70;99.90;;;;;;5095093;28;20040;-81
2023/08/31 08:49:43;;;;;;;0.30;0.30;;;15.80;99.90;;;;;;5094790;28;20075;-81
2023/08/31 08:52:09;;;;;;;0.50;0.50;;;16.00;99.90;;;;;;5094926;28;20129;-81
2023/08/31 08:54:35;;;;;;;0.30;0.30;;;16.00;99.90;;;;;;5094680;28;20101;-81
2023/08/31 08:57:03;;;;;;;0.47;0.47;;;16.10;99.90;;;;;;5094428;28;20072;-81
2023/08/31 08:59:32;;;;;;;0.30;0.30;;;16.40;99.90;;;;;;5095067;28;20043;-82
2023/08/31 09:01:58;;;;;;;0.30;0.30;;;16.60;99.90;;;;;;5094901;28;20071;-81
2023/08/31 09:04:23;;;;;;;0.30;0.30;;;16.80;99.90;;;;;;5094539;28;20084;-81
2023/08/31 09:06:52;;;;;;;0.30;0.30;;;16.90;99.90;;;;;;5094095;28;20044;-82
2023/08/31 09:09:18;;;;;;;0.30;0.30;;;17.10;99.90;;;;;;5094502;28;20040;-82
2023/08/31 09:11:45;;;;;;;0.65;0.55;;;17.30;99.90;;;;;;5094363;28;20092;-82
2023/08/31 09:14:16;;;;;;;0.30;0.30;;;17.50;99.90;;;;;;5094448;28;20043;-81
2023/08/31 09:16:48;;;;;;;0.40;0.40;;;17.60;99.90;;;;;;5094481;28;20062;-80
2023/08/31 09:19:24;;;;;;;1.88;0.60;;;17.60;99.90;;;;;;5094473;28;20149;-80
2023/08/31 09:21:51;;;;;;;0.20;0.20;;;17.60;99.90;;;;;;5094253;28;20114;-81
2023/08/31 09:24:19;;;;;;;;;;;17.50;99.90;;;;;;5095297;28;20433;-80
2023/08/31 09:26:47;;;;;;;0.40;0.40;;;17.40;99.90;;;;;;5094130;28;19916;-80
2023/08/31 09:29:14;;;;;;;0.30;0.30;;;17.30;99.90;;;;;;5094379;28;20352;-80
2023/08/31 09:31:44;;;;;;;0.30;0.30;;;17.30;99.90;;;;;;5093882;28;20038;-81
2023/08/31 09:34:10;;;;;;;0.30;0.30;;;17.00;99.90;;;;;;5093690;28;20464;-78
2023/08/31 09:36:37;;;;;;;0.30;0.30;;;16.90;99.90;;;;;;5093862;28;20092;-79
2023/08/31 09:39:04;;;;;;;0.30;0.30;;;16.70;99.90;;;;;;5094002;28;20031;-79
2023/08/31 09:41:30;;;;;;;0.30;0.30;;;16.70;99.90;;;;;;5094550;28;20379;-79
2023/08/31 09:43:56;;;;;;;0.27;0.27;;;16.70;99.90;;;;;;5093557;28;20130;-79
2023/08/31 09:46:22;;;;;;;0.30;0.30;;;16.60;99.90;;;;;;5093920;28;20075;-79
2023/08/31 09:48:49;;;;;;;0.40;0.40;;;16.60;99.90;;;;;;5093820;28;20063;-80
2023/08/31 09:51:20;;;;;;;0.30;0.30;;;16.60;99.90;;;;;;5093710;28;20044;-81
2023/08/31 09:53:49;;;;;;;0.30;0.30;;;16.80;99.90;;;;;;5094284;28;20160;-81
2023/08/31 09:56:20;;;;;;;0.40;0.40;;;17.10;99.90;;;;;;5093832;28;20032;-80
2023/08/31 09:58:45;;;;;;;0.30;0.30;;;17.40;99.90;;;;;;5093910;28;20361;-80
2023/08/31 10:01:11;;;;;;;0.73;0.73;;;17.60;99.90;;;;;;5093883;28;20043;-81
2023/08/31 10:03:37;;;;;;;0.30;0.30;;;17.80;99.90;;;;;;5093550;28;20483;-80
2023/08/31 10:06:04;;;;;;;0.30;0.30;;;18.10;99.90;;;;;;5092415;28;20054;-80
2023/08/31 10:08:31;;;;;;;0.30;0.30;;;18.40;99.90;;;;;;5092151;28;20472;-79
2023/08/31 10:11:03;;;;;;;0.32;0.32;;;18.70;99.90;;;;;;5093427;28;20048;-80
2023/08/31 10:13:35;;;;;;;1.02;0.75;;;18.70;99.90;;;;;;5093631;28;20398;-80
2023/08/31 10:16:03;;;;;;;0.30;0.30;;;18.60;99.90;;;;;;5093757;28;20040;-80
2023/08/31 10:18:30;;;;;;;0.30;0.30;;;18.40;99.90;;;;;;5093534;28;20036;-80
2023/08/31 10:20:56;;;;;;;0.22;0.22;;;18.10;99.90;;;;;;5093551;28;20380;-81
2023/08/31 10:23:22;;;;;;;0.30;0.30;;;17.90;99.90;;;;;;5093527;28;20040;-81
2023/08/31 10:25:53;;;;;;;0.20;0.20;;;17.80;99.90;;;;;;5093733;28;20036;-80
2023/08/31 10:28:20;;;;;;;1.23;0.57;;;17.70;99.90;;;;;;5093482;28;20048;-81
2023/08/31 10:31:06;;;;;;;0.30;0.30;;;17.60;99.90;;;;;;5093514;28;20080;-81
2023/08/31 10:33:42;;;;;;;0.30;0.30;;;17.50;99.90;;;;;;5092525;28;20376;-80
2023/08/31 10:36:18;;;;;;;0.40;0.40;;;17.40;99.90;;;;;;5092537;28;20441;-80
2023/08/31 10:39:05;;;;;;;0.40;0.40;;;17.50;99.90;;;;;;5093388;28;20058;-80
2023/08/31 10:41:35;;;;;;;0.20;0.20;;;17.60;99.90;;;;;;5092911;28;20506;-80
2023/08/31 10:44:01;;;;;;;0.30;0.30;;;17.90;99.90;;;;;;5093014;28;20498;-80
2023/08/31 10:46:32;;;;;;;0.30;0.30;;;18.00;99.90;;;;;;5093333;28;20126;-80
2023/08/31 10:49:09;;;;;;;0.30;0.30;;;18.00;99.90;;;;;;5094663;28;20083;-81
2023/08/31 10:51:35;;;;;;;0.20;0.20;;;17.90;99.90;;;;;;5096991;28;20046;-80
2023/08/31 10:54:24;;;;;;;0.30;0.30;;;17.80;99.90;;;;;;5097476;28;20468;-80
2023/08/31 10:56:56;;;;;;;0.30;0.30;;;17.70;99.90;;;;;;5097028;28;20101;-80
2023/08/31 10:59:23;;;;;;;0.50;0.50;;;17.50;99.90;;;;;;5096926;28;20047;-80
2023/08/31 11:01:55;;;;;;;0.30;0.30;;;17.50;99.90;;;;;;5096915;28;20028;-80
2023/08/31 11:04:29;;;;;;;0.30;0.30;;;17.30;99.90;;;;;;5096729;28;20376;-81
2023/08/31 11:07:16;;;;;;;0.30;0.30;;;17.30;99.90;;;;;;5096897;28;20035;-79
2023/08/31 11:09:43;;;;;;;0.30;0.30;;;17.20;99.90;;;;;;5095842;28;20048;-80
2023/08/31 11:12:09;;;;;;;0.30;0.30;;;17.00;99.90;;;;;;5096686;28;20089;-80
2023/08/31 11:14:35;;;;;;;0.30;0.30;;;16.80;99.90;;;;;;5096632;28;20372;-80
2023/08/31 11:17:02;;;;;;;0.30;0.30;;;16.60;99.90;;;;;;5095475;28;20118;-80
2023/08/31 11:19:31;;;;;;;0.30;0.30;;;16.70;99.90;;;;;;5095659;28;20048;-80
2023/08/31 11:21:57;;;;;;;0.30;0.30;;;16.40;99.90;;;;;;5096562;28;20040;-80
2023/08/31 11:24:23;;;;;;;1.83;0.63;;;16.50;99.90;;;;;;5096532;28;20059;-80
2023/08/31 11:26:53;;;;;;;0.30;0.30;;;16.60;99.90;;;;;;5078797;28;20104;-80
2023/08/31 11:29:19;;;;;;;0.30;0.30;;;16.90;99.90;;;;;;5096339;28;20040;-80
2023/08/31 11:31:45;;;;;;;0.47;0.47;;;17.20;99.90;;;;;;5096317;28;20032;-80
2023/08/31 11:34:14;;;;;;;0.30;0.30;;;17.40;99.90;;;;;;5096640;28;20064;-80
2023/08/31 11:36:43;;;;;;;0.30;0.30;;;17.40;99.90;;;;;;5096294;28;20048;-80
2023/08/31 11:39:14;;;;;;;0.28;0.28;;;17.40;99.90;;;;;;5096311;28;20353;-81
2023/08/31 11:41:43;;;;;;;0.30;0.30;;;17.30;99.90;;;;;;5095855;28;20413;-80
2023/08/31 11:44:11;;;;;;;0.40;0.40;;;17.30;99.90;;;;;;5096864;28;20075;-80
2023/08/31 11:46:38;;;;;;;0.50;0.50;;;17.40;99.90;;;;;;5096018;28;20086;-80
2023/08/31 11:49:04;;;;;;;0.38;0.38;;;17.50;99.90;;;;;;5095997;28;20468;-80
2023/08/31 11:51:32;;;;;;;0.52;0.52;;;17.70;99.90;;;;;;5095996;28;20036;-81
2023/08/31 11:53:59;;;;;;;4.40;0.98;;;17.90;99.90;;;;;;5095998;28;20032;-81
2023/08/31 11:56:25;;;;;;;0.35;0.35;;;18.00;99.90;;;;;;5095812;28;20058;-80
2023/08/31 11:58:51;;;;;;;0.40;0.40;;;18.30;99.90;;;;;;5095870;28;20036;-80
2023/08/31 12:01:21;;;;;;;0.30;0.30;;;18.50;99.90;;;;;;5093538;28;20487;-80
2023/08/31 12:03:47;;;;;;;0.30;0.30;;;18.70;99.90;;;;;;5095716;28;20079;-80
2023/08/31 12:06:17;;;;;;;0.40;0.40;;;18.80;99.90;;;;;;5095835;28;20120;-80
2023/08/31 12:08:43;;;;;;;0.30;0.30;;;18.80;99.90;;;;;;5095376;28;20488;-81
2023/08/31 12:11:09;;;;;;;0.33;0.33;;;18.90;99.90;;;;;;5095307;28;20040;-81
2023/08/31 12:13:34;;;;;;;0.30;0.30;;;18.90;99.90;;;;;;5095336;28;20044;-81
2023/08/31 12:16:01;;;;;;;0.30;0.30;;;19.00;99.90;;;;;;5096032;28;20040;-81
2023/08/31 12:18:30;;;;;;;;;;;19.00;99.90;;;;;;5095939;28;20372;-80
2023/08/31 12:20:57;;;;;;;0.20;0.20;;;19.00;99.90;;;;;;5095407;28;20326;-80
2023/08/31 12:23:22;;;;;;;0.30;0.30;;;19.10;99.90;;;;;;5094967;28;20545;-80
2023/08/31 12:25:54;;;;;;;0.30;0.30;;;19.10;99.90;;;;;;5094978;28;20040;-80
2023/08/31 12:28:22;;;;;;;0.30;0.30;;;19.20;99.90;;;;;;5095378;28;20078;-80
2023/08/31 12:30:52;;;;;;;0.30;0.30;;;19.30;99.90;;;;;;5095177;28;20100;-80
2023/08/31 12:33:19;;;;;;;0.30;0.30;;;19.40;99.90;;;;;;5094944;28;20073;-81
2023/08/31 12:35:45;;;;;;;;;;;19.40;99.90;;;;;;5095395;28;20079;-81
2023/08/31 12:38:11;;;;;;;0.20;0.20;;;19.40;99.90;;;;;;5095200;28;20268;-80
2023/08/31 12:40:39;;;;;;;0.30;0.30;;;19.40;99.90;;;;;;5094998;28;20036;-80
2023/08/31 12:43:09;;;;;;;0.30;0.30;;;19.30;99.90;;;;;;5095337;28;20157;-80
2023/08/31 12:45:36;;;;;;;0.30;0.30;;;19.30;99.90;;;;;;5094943;28;20040;-80
2023/08/31 12:48:03;;;;;;;0.55;0.40;;;19.20;99.90;;;;;;5095138;28;20044;-80